Lancaster, Ohio
Current Conditions -  °F | °C
As of 9:53 AM on Monday 24 Nov 2014 (Local Time) from KLHQ Reporting Station
Broken Clouds Broken Clouds  
Wind Chill: 64°   Ceiling: 6000
Heat Index: 64°   Visibility: 10mi
Dew Point: 50°   Wind: 24mph
Humidity: 60%   Direction: 200°SSW
Pressure: 29.36"   Gusts: 35mph
Location:  39.71°N, 82.6°W
Report Text: KLHQ 241453Z AUTO 20021G30KT 10SM SCT047 BKN060 BKN075 18/10 A2936 RMK AO2 PK WND 19033/1442 SLP939 T01780100 58002
Loading
Personal Weather Stations






























Interactive Weather Map New forecast layout! Learn more

10-Day Weather Forecast

Advertisements
Track Severe Weather on mobile